Richland, Texas
Current Conditions -  °F | °C
As of 7:53 PM on Wednesday 17 Dec 2014 (Local Time) from KCRS Reporting Station
Overcast Overcast  
Wind Chill: 44°   Ceiling: 2000
Heat Index: 47°   Visibility: 10mi
Dew Point: 44°   Wind: 6mph
Humidity: 90%   Direction: 50°NE
Pressure: 30.15"   Gusts: NA
Location:  31.93°N, 96.43°W
Report Text: KCRS 180153Z AUTO 05005KT 10SM OVC020 08/07 A3015 RMK AO2 RAB21E36 SLP212 P0000 T00830067
Loading
Personal Weather Stations






























Interactive Weather Map New forecast layout! Learn more

10-Day Weather Forecast

Advertisements
Track Severe Weather on mobile